createdAt,value
2017-03-04T00:00:03.442Z,7.9
2017-03-04T00:00:13.437Z,7.9
2017-03-04T00:00:23.432Z,7.9
2017-03-04T00:00:33.425Z,7.9
2017-03-04T00:00:43.418Z,7.9
2017-03-04T00:00:53.413Z,7.9
2017-03-04T00:01:03.406Z,7.9
2017-03-04T00:01:13.398Z,7.9
2017-03-04T00:01:23.390Z,7.9
2017-03-04T00:01:33.385Z,7.9
2017-03-04T00:01:43.379Z,7.9
2017-03-04T00:01:53.372Z,7.9
2017-03-04T00:02:03.368Z,7.9
2017-03-04T00:02:13.363Z,7.9
2017-03-04T00:02:23.656Z,7.9
2017-03-04T00:02:33.377Z,7.9
2017-03-04T00:02:43.341Z,7.9
2017-03-04T00:02:53.336Z,7.8
2017-03-04T00:03:03.331Z,7.9
2017-03-04T00:03:13.323Z,7.9
2017-03-04T00:03:23.318Z,7.8
2017-03-04T00:03:33.312Z,7.8
2017-03-04T00:03:43.303Z,7.8
2017-03-04T00:03:53.298Z,7.9
2017-03-04T00:04:03.294Z,7.8
2017-03-04T00:04:13.288Z,7.8
2017-03-04T00:04:23.283Z,7.8
2017-03-04T00:04:33.273Z,7.8
2017-03-04T00:04:43.267Z,7.8
2017-03-04T00:04:53.264Z,7.8
2017-03-04T00:05:03.257Z,7.8
2017-03-04T00:05:13.248Z,7.8
2017-03-04T00:05:23.243Z,7.8
2017-03-04T00:05:33.236Z,7.7
2017-03-04T00:05:43.232Z,7.8
2017-03-04T00:05:53.226Z,7.8
2017-03-04T00:06:03.217Z,7.8
2017-03-04T00:06:13.212Z,7.8
2017-03-04T00:06:23.206Z,7.8
2017-03-04T00:06:33.201Z,7.8
2017-03-04T00:06:43.192Z,7.8
2017-03-04T00:06:53.190Z,7.8
2017-03-04T00:07:03.184Z,7.8
2017-03-04T00:07:13.174Z,7.8
2017-03-04T00:07:23.423Z,7.8
2017-03-04T00:07:33.164Z,7.8
2017-03-04T00:07:43.158Z,7.8
2017-03-04T00:07:53.150Z,7.8
2017-03-04T00:08:03.144Z,7.9
2017-03-04T00:08:13.136Z,7.9
2017-03-04T00:08:23.134Z,7.8
2017-03-04T00:08:33.127Z,7.9
2017-03-04T00:08:43.118Z,7.9
2017-03-04T00:08:53.115Z,7.8
2017-03-04T00:09:03.109Z,7.9
2017-03-04T00:09:13.103Z,7.9
2017-03-04T00:09:23.094Z,7.9
2017-03-04T00:09:33.088Z,7.9
2017-03-04T00:09:43.085Z,7.9
2017-03-04T00:09:53.075Z,7.8
2017-03-04T00:10:03.069Z,7.9
2017-03-04T00:10:13.063Z,7.8
2017-03-04T00:10:23.057Z,7.9
2017-03-04T00:10:33.053Z,7.9
2017-03-04T00:10:43.043Z,7.9
2017-03-04T00:10:53.040Z,7.8
2017-03-04T00:11:03.031Z,7.8
2017-03-04T00:11:13.028Z,7.9
2017-03-04T00:11:23.023Z,8
2017-03-04T00:11:33.014Z,7.8
2017-03-04T00:11:43.010Z,7.8
2017-03-04T00:11:53.004Z,7.8
2017-03-04T00:12:02.995Z,7.8
2017-03-04T00:12:12.991Z,7.8
2017-03-04T00:12:22.983Z,7.7
2017-03-04T00:12:32.978Z,7.8
2017-03-04T00:12:42.970Z,7.8
2017-03-04T00:12:52.967Z,7.7
2017-03-04T00:13:02.960Z,7.8
2017-03-04T00:13:12.954Z,7.7
2017-03-04T00:13:22.944Z,7.8
2017-03-04T00:13:32.938Z,7.8
2017-03-04T00:13:42.936Z,7.7
2017-03-04T00:13:52.929Z,7.8
2017-03-04T00:14:02.923Z,7.8
2017-03-04T00:14:12.915Z,7.8
2017-03-04T00:14:22.911Z,7.8
2017-03-04T00:14:32.905Z,7.8
2017-03-04T00:14:42.894Z,7.8
2017-03-04T00:14:52.888Z,7.8
2017-03-04T00:15:02.888Z,7.7
2017-03-04T00:15:12.877Z,7.8
2017-03-04T00:15:22.870Z,7.8
2017-03-04T00:15:32.865Z,7.7
2017-03-04T00:15:42.861Z,7.7
2017-03-04T00:15:52.855Z,7.8
2017-03-04T00:16:02.845Z,7.8
2017-03-04T00:16:12.843Z,7.7
2017-03-04T00:16:22.833Z,7.7
2017-03-04T00:16:32.827Z,7.8
2017-03-04T00:16:42.824Z,7.8
2017-03-04T00:16:52.818Z,7.8
2017-03-04T00:17:02.812Z,7.8
2017-03-04T00:17:12.804Z,7.8
2017-03-04T00:17:22.796Z,7.8
2017-03-04T00:17:32.790Z,7.7
2017-03-04T00:17:42.785Z,7.8
2017-03-04T00:17:52.779Z,7.8
2017-03-04T00:18:02.775Z,7.8
2017-03-04T00:18:12.768Z,7.8
2017-03-04T00:18:22.758Z,7.8
2017-03-04T00:18:32.752Z,7.7
2017-03-04T00:18:42.748Z,7.8
2017-03-04T00:18:52.741Z,7.8
2017-03-04T00:19:02.738Z,7.9
2017-03-04T00:19:12.731Z,7.8
2017-03-04T00:19:22.725Z,7.9
2017-03-04T00:19:32.716Z,7.8
2017-03-04T00:19:42.709Z,7.9
2017-03-04T00:19:52.706Z,7.8
2017-03-04T00:20:02.702Z,7.8
2017-03-04T00:20:12.692Z,7.9
2017-03-04T00:20:22.686Z,7.8
2017-03-04T00:20:32.679Z,7.8
2017-03-04T00:20:42.672Z,7.9
2017-03-04T00:20:52.669Z,7.9
2017-03-04T00:21:02.662Z,7.9
2017-03-04T00:21:12.653Z,7.8
2017-03-04T00:21:22.650Z,7.8
2017-03-04T00:21:32.642Z,7.7
2017-03-04T00:21:42.636Z,7.8
2017-03-04T00:21:52.631Z,7.8
2017-03-04T00:22:02.624Z,7.7
2017-03-04T00:22:12.619Z,7.8
2017-03-04T00:22:22.860Z,7.8
2017-03-04T00:22:32.604Z,7.9
2017-03-04T00:22:42.597Z,7.8
2017-03-04T00:22:52.594Z,7.8
2017-03-04T00:23:02.586Z,7.8
2017-03-04T00:23:12.582Z,7.8
2017-03-04T00:23:22.574Z,7.9
2017-03-04T00:23:32.570Z,7.8
2017-03-04T00:23:42.561Z,7.9
2017-03-04T00:23:52.556Z,7.8
2017-03-04T00:24:02.551Z,7.8
2017-03-04T00:24:12.541Z,7.8
2017-03-04T00:24:22.536Z,7.8
2017-03-04T00:24:32.530Z,7.9
2017-03-04T00:24:42.525Z,7.9
2017-03-04T00:24:52.519Z,7.9
2017-03-04T00:25:02.514Z,7.9
2017-03-04T00:25:12.508Z,7.8
2017-03-04T00:25:22.501Z,7.8
2017-03-04T00:25:32.492Z,7.9
2017-03-04T00:25:42.487Z,7.8
2017-03-04T00:25:52.481Z,7.8
2017-03-04T00:26:02.473Z,7.8
2017-03-04T00:26:12.468Z,7.8
2017-03-04T00:26:22.462Z,7.8
2017-03-04T00:26:32.456Z,7.8
2017-03-04T00:26:42.449Z,7.8
2017-03-04T00:26:52.446Z,7.8
2017-03-04T00:27:02.436Z,7.9
2017-03-04T00:27:12.430Z,7.8
2017-03-04T00:27:22.677Z,7.8
2017-03-04T00:27:32.422Z,7.8
2017-03-04T00:27:42.414Z,7.8
2017-03-04T00:27:52.409Z,7.8
2017-03-04T00:28:02.399Z,7.9
2017-03-04T00:28:12.396Z,7.9
2017-03-04T00:28:22.390Z,7.8
2017-03-04T00:28:32.380Z,8
2017-03-04T00:28:42.374Z,7.8
2017-03-04T00:28:52.371Z,7.8
2017-03-04T00:29:02.362Z,7.8
2017-03-04T00:29:12.357Z,7.8
2017-03-04T00:29:22.351Z,7.8
2017-03-04T00:29:32.347Z,7.8
2017-03-04T00:29:42.337Z,7.7
2017-03-04T00:29:52.330Z,7.8
2017-03-04T00:30:02.326Z,7.8
2017-03-04T00:30:12.323Z,7.8
2017-03-04T00:30:22.313Z,7.8
2017-03-04T00:30:32.309Z,7.8
2017-03-04T00:30:42.300Z,7.9
2017-03-04T00:30:52.294Z,7.8
2017-03-04T00:31:02.290Z,7.8
2017-03-04T00:31:12.282Z,7.9
2017-03-04T00:31:22.275Z,7.8
2017-03-04T00:31:32.273Z,7.8
2017-03-04T00:31:42.285Z,7.8
2017-03-04T00:31:52.258Z,7.9
2017-03-04T00:32:02.252Z,7.8
2017-03-04T00:32:12.245Z,7.9
2017-03-04T00:32:22.491Z,7.9
2017-03-04T00:32:32.233Z,7.8
2017-03-04T00:32:42.228Z,7.8
2017-03-04T00:32:52.223Z,7.9
2017-03-04T00:33:02.216Z,7.8
2017-03-04T00:33:12.210Z,7.8
2017-03-04T00:33:22.204Z,7.8
2017-03-04T00:33:32.197Z,7.9
2017-03-04T00:33:42.188Z,7.9
2017-03-04T00:33:52.185Z,7.8
2017-03-04T00:34:02.177Z,7.8
2017-03-04T00:34:12.173Z,7.8
2017-03-04T00:34:22.162Z,7.9
2017-03-04T00:34:32.157Z,7.8
2017-03-04T00:34:42.152Z,7.8
2017-03-04T00:34:52.148Z,7.8
2017-03-04T00:35:02.142Z,7.8
2017-03-04T00:35:12.132Z,7.8
2017-03-04T00:35:22.127Z,7.8
2017-03-04T00:35:32.122Z,7.9
2017-03-04T00:35:42.117Z,7.9
2017-03-04T00:35:52.111Z,7.8
2017-03-04T00:36:02.104Z,7.8
2017-03-04T00:36:12.099Z,7.8
2017-03-04T00:36:22.092Z,7.8
2017-03-04T00:36:32.082Z,7.8
2017-03-04T00:36:42.077Z,7.8
2017-03-04T00:36:52.074Z,7.9
2017-03-04T00:37:02.064Z,7.9
2017-03-04T00:37:12.059Z,7.9
2017-03-04T00:37:22.052Z,7.8
2017-03-04T00:37:32.046Z,7.9
2017-03-04T00:37:42.039Z,7.8
2017-03-04T00:37:52.033Z,7.8
2017-03-04T00:38:02.028Z,7.9
2017-03-04T00:38:12.024Z,7.8
2017-03-04T00:38:22.016Z,7.8
2017-03-04T00:38:32.008Z,7.9
2017-03-04T00:38:42.005Z,7.9
2017-03-04T00:38:51.997Z,7.8
2017-03-04T00:39:01.992Z,7.8
2017-03-04T00:39:11.983Z,7.7
2017-03-04T00:39:21.980Z,7.8
2017-03-04T00:39:31.974Z,7.8
2017-03-04T00:39:41.968Z,7.8
2017-03-04T00:39:51.961Z,7.7
2017-03-04T00:40:01.954Z,7.7
2017-03-04T00:40:11.948Z,7.7
2017-03-04T00:40:21.944Z,7.7
2017-03-04T00:40:31.937Z,7.7
2017-03-04T00:40:41.930Z,7.6
2017-03-04T00:40:51.924Z,7.6
2017-03-04T00:41:01.918Z,7.7
2017-03-04T00:41:11.909Z,7.7
2017-03-04T00:41:21.906Z,7.6
2017-03-04T00:41:31.898Z,7.6
2017-03-04T00:41:41.894Z,7.6
2017-03-04T00:41:51.887Z,7.7
2017-03-04T00:42:01.879Z,7.6
2017-03-04T00:42:11.872Z,7.5
2017-03-04T00:42:21.867Z,7.6
2017-03-04T00:42:31.863Z,7.6
2017-03-04T00:42:41.856Z,7.6
2017-03-04T00:42:51.849Z,7.6
2017-03-04T00:43:01.841Z,7.5
2017-03-04T00:43:11.835Z,7.5
2017-03-04T00:43:21.829Z,7.4
2017-03-04T00:43:31.826Z,7.4
2017-03-04T00:43:41.816Z,7.5
2017-03-04T00:43:51.811Z,7.4
2017-03-04T00:44:01.806Z,7.6
2017-03-04T00:44:11.800Z,7.5
2017-03-04T00:44:21.795Z,7.5
2017-03-04T00:44:31.788Z,7.6
2017-03-04T00:44:41.783Z,7.6
2017-03-04T00:44:51.776Z,7.5
2017-03-04T00:45:01.765Z,7.5
2017-03-04T00:45:11.763Z,7.5
2017-03-04T00:45:21.754Z,7.6
2017-03-04T00:45:31.748Z,7.5
2017-03-04T00:45:41.744Z,7.5
2017-03-04T00:45:51.739Z,7.4
2017-03-04T00:46:01.732Z,7.5
2017-03-04T00:46:11.724Z,7.5
2017-03-04T00:46:21.716Z,7.4
2017-03-04T00:46:31.712Z,7.5
2017-03-04T00:46:41.703Z,7.6
2017-03-04T00:46:51.701Z,7.4
2017-03-04T00:47:01.695Z,7.6
2017-03-04T00:47:11.688Z,7.5
2017-03-04T00:47:21.681Z,7.5
2017-03-04T00:47:31.677Z,7.5
2017-03-04T00:47:41.670Z,7.5
2017-03-04T00:47:51.660Z,7.5
2017-03-04T00:48:01.657Z,7.5
2017-03-04T00:48:11.651Z,7.5
2017-03-04T00:48:21.646Z,7.5
2017-03-04T00:48:31.637Z,7.4
2017-03-04T00:48:41.631Z,7.5
2017-03-04T00:48:51.627Z,7.5
2017-03-04T00:49:01.617Z,7.4
2017-03-04T00:49:11.612Z,7.5
2017-03-04T00:49:21.607Z,7.5
2017-03-04T00:49:31.602Z,7.4
2017-03-04T00:49:41.596Z,7.4
2017-03-04T00:49:51.587Z,7.4
2017-03-04T00:50:01.583Z,7.5
2017-03-04T00:50:11.574Z,7.4
2017-03-04T00:50:21.567Z,7.4
2017-03-04T00:50:31.564Z,7.4
2017-03-04T00:50:41.555Z,7.4
2017-03-04T00:50:51.552Z,7.5
2017-03-04T00:51:01.546Z,7.5
2017-03-04T00:51:11.537Z,7.5
2017-03-04T00:51:21.531Z,7.4
2017-03-04T00:51:31.526Z,7.4
2017-03-04T00:51:41.520Z,7.4
2017-03-04T00:51:51.515Z,7.3
2017-03-04T00:52:01.511Z,7.3
2017-03-04T00:52:11.503Z,7.4
2017-03-04T00:52:21.744Z,7.3
2017-03-04T00:52:31.490Z,7.3
2017-03-04T00:52:41.480Z,7.3
2017-03-04T00:52:51.475Z,7.4
2017-03-04T00:53:01.471Z,7.4
2017-03-04T00:53:11.463Z,7.4
2017-03-04T00:53:21.459Z,7.3
2017-03-04T00:53:31.453Z,7.4
2017-03-04T00:53:41.444Z,7.4
2017-03-04T00:53:51.440Z,7.3
2017-03-04T00:54:01.431Z,7.3
2017-03-04T00:54:11.427Z,7.3
2017-03-04T00:54:21.421Z,7.3
2017-03-04T00:54:31.413Z,7.3
2017-03-04T00:54:41.408Z,7.3
2017-03-04T00:54:51.401Z,7.3
2017-03-04T00:55:01.395Z,7.3
2017-03-04T00:55:11.387Z,7.3
2017-03-04T00:55:21.384Z,7.3
2017-03-04T00:55:31.378Z,7.3
2017-03-04T00:55:41.371Z,7.3
2017-03-04T00:55:51.364Z,7.2
2017-03-04T00:56:01.360Z,7.3
2017-03-04T00:56:11.351Z,7.2
2017-03-04T00:56:21.346Z,7.1
2017-03-04T00:56:31.341Z,7.1
2017-03-04T00:56:41.334Z,7.1
2017-03-04T00:56:51.326Z,7.2
2017-03-04T00:57:01.322Z,7.1
2017-03-04T00:57:11.314Z,7.2
2017-03-04T00:57:21.557Z,7.1
2017-03-04T00:57:31.301Z,7.1
2017-03-04T00:57:41.298Z,7.1
2017-03-04T00:57:51.290Z,7.1
2017-03-04T00:58:01.284Z,7.1
2017-03-04T00:58:11.280Z,7.1
2017-03-04T00:58:21.269Z,7.1
2017-03-04T00:58:31.266Z,7.1
2017-03-04T00:58:41.260Z,7.1
2017-03-04T00:58:51.251Z,7.1
2017-03-04T00:59:01.248Z,7.1
2017-03-04T00:59:11.241Z,7.2
2017-03-04T00:59:21.237Z,7.2
2017-03-04T00:59:31.229Z,7.1
2017-03-04T00:59:41.223Z,7
2017-03-04T00:59:51.214Z,7
2017-03-04T01:00:01.208Z,7.1
2017-03-04T01:00:11.205Z,7
2017-03-04T01:00:21.201Z,7.1
2017-03-04T01:00:31.191Z,7.1
2017-03-04T01:00:41.186Z,7
2017-03-04T01:00:51.180Z,7.1
2017-03-04T01:01:01.172Z,7
2017-03-04T01:01:11.171Z,7.1
2017-03-04T01:01:21.161Z,7
2017-03-04T01:01:31.155Z,7
2017-03-04T01:01:41.148Z,7
2017-03-04T01:01:51.141Z,7
2017-03-04T01:02:01.135Z,7
2017-03-04T01:02:11.131Z,7
2017-03-04T01:02:21.421Z,7
2017-03-04T01:02:31.118Z,7
2017-03-04T01:02:41.108Z,7
2017-03-04T01:02:51.105Z,7
2017-03-04T01:03:01.099Z,7
2017-03-04T01:03:11.089Z,7
2017-03-04T01:03:21.086Z,7
2017-03-04T01:03:31.078Z,7.1
2017-03-04T01:03:41.073Z,7.1
2017-03-04T01:03:51.065Z,7
2017-03-04T01:04:01.060Z,7
2017-03-04T01:04:11.054Z,7.1
2017-03-04T01:04:21.046Z,7
2017-03-04T01:04:31.040Z,7.1
2017-03-04T01:04:41.036Z,7
2017-03-04T01:04:51.028Z,7.2
2017-03-04T01:05:01.021Z,7.2
2017-03-04T01:05:11.018Z,7.2
2017-03-04T01:05:21.012Z,7.2
2017-03-04T01:05:31.004Z,7.2
2017-03-04T01:05:40.999Z,7.2
2017-03-04T01:05:50.990Z,7.1
2017-03-04T01:06:00.985Z,7.2
2017-03-04T01:06:10.981Z,7.1
2017-03-04T01:06:20.972Z,7.1
2017-03-04T01:06:30.965Z,7.2
2017-03-04T01:06:40.961Z,7.2
2017-03-04T01:06:50.956Z,7.2
2017-03-04T01:07:00.950Z,7.1
2017-03-04T01:07:10.942Z,7.2
2017-03-04T01:07:20.937Z,7.1
2017-03-04T01:07:30.928Z,7.2
2017-03-04T01:07:40.925Z,7.2
2017-03-04T01:07:50.918Z,7.2
2017-03-04T01:08:00.910Z,7.1
2017-03-04T01:08:10.905Z,7.2
2017-03-04T01:08:20.900Z,7.2
2017-03-04T01:08:30.917Z,7.2
2017-03-04T01:08:40.885Z,7.3
2017-03-04T01:08:50.882Z,7.2
2017-03-04T01:09:00.871Z,7.3
2017-03-04T01:09:10.868Z,7.2
2017-03-04T01:09:20.862Z,7.2
2017-03-04T01:09:30.856Z,7.2
2017-03-04T01:09:40.848Z,7.3
2017-03-04T01:09:50.844Z,7.2
2017-03-04T01:10:00.835Z,7.2
2017-03-04T01:10:10.833Z,7.1
2017-03-04T01:10:20.826Z,7.2
2017-03-04T01:10:30.816Z,7.2
2017-03-04T01:10:40.812Z,7.2
2017-03-04T01:10:50.806Z,7.2
2017-03-04T01:11:00.801Z,7.2
2017-03-04T01:11:10.792Z,7.2
2017-03-04T01:11:20.785Z,7.2
2017-03-04T01:11:30.780Z,7.2
2017-03-04T01:11:40.774Z,7.1
2017-03-04T01:11:50.769Z,7.1
2017-03-04T01:12:00.761Z,7.1
2017-03-04T01:12:10.753Z,7.1
2017-03-04T01:12:20.749Z,7.1
2017-03-04T01:12:30.744Z,7.2
2017-03-04T01:12:40.737Z,7.2
2017-03-04T01:12:50.732Z,7.2
2017-03-04T01:13:00.722Z,7.2
2017-03-04T01:13:10.720Z,7.2
2017-03-04T01:13:20.711Z,7.2
2017-03-04T01:13:30.704Z,7.2
2017-03-04T01:13:40.697Z,7.2
2017-03-04T01:13:50.694Z,7.2
2017-03-04T01:14:00.689Z,7.2
2017-03-04T01:14:10.679Z,7.2
2017-03-04T01:14:20.672Z,7.2
2017-03-04T01:14:30.667Z,7.2
2017-03-04T01:14:40.664Z,7.2
2017-03-04T01:14:50.657Z,7.2
2017-03-04T01:15:00.652Z,7.2
2017-03-04T01:15:10.642Z,7.1
2017-03-04T01:15:20.635Z,7.2
2017-03-04T01:15:30.630Z,7.1
2017-03-04T01:15:40.624Z,7.2
2017-03-04T01:15:50.618Z,7.1
2017-03-04T01:16:00.611Z,7.1
2017-03-04T01:16:10.607Z,7.2
2017-03-04T01:16:20.601Z,7.1
2017-03-04T01:16:30.595Z,7.2
2017-03-04T01:16:40.589Z,7.2
2017-03-04T01:16:50.580Z,7.1
2017-03-04T01:17:00.576Z,7.1
2017-03-04T01:17:10.570Z,7.2
2017-03-04T01:17:20.561Z,7.1
2017-03-04T01:17:30.559Z,7.1
2017-03-04T01:17:40.551Z,7
2017-03-04T01:17:50.541Z,7
2017-03-04T01:18:00.535Z,7.1
2017-03-04T01:18:10.530Z,7
2017-03-04T01:18:20.523Z,7.1
2017-03-04T01:18:30.518Z,7.1
2017-03-04T01:18:40.514Z,7.1
2017-03-04T01:18:50.508Z,7.1
2017-03-04T01:19:00.502Z,7
2017-03-04T01:19:10.495Z,7
2017-03-04T01:19:20.486Z,7
2017-03-04T01:19:30.480Z,7.1
2017-03-04T01:19:40.474Z,7.1
2017-03-04T01:19:50.468Z,7.1
2017-03-04T01:20:00.462Z,7.1
2017-03-04T01:20:10.457Z,7.1
2017-03-04T01:20:20.452Z,7
2017-03-04T01:20:30.445Z,7
2017-03-04T01:20:40.439Z,7
2017-03-04T01:20:50.433Z,7
2017-03-04T01:21:00.424Z,7
2017-03-04T01:21:10.421Z,7.1
2017-03-04T01:21:20.414Z,7
2017-03-04T01:21:30.404Z,7.1
2017-03-04T01:21:40.399Z,7
2017-03-04T01:21:50.395Z,7.1
2017-03-04T01:22:00.388Z,7
2017-03-04T01:22:10.380Z,7
2017-03-04T01:22:20.376Z,7
2017-03-04T01:22:30.371Z,6.9
2017-03-04T01:22:40.372Z,7
2017-03-04T01:22:50.355Z,6.8
2017-03-04T01:23:00.352Z,6.9
2017-03-04T01:23:10.344Z,6.9
2017-03-04T01:23:20.338Z,7
2017-03-04T01:23:30.334Z,6.8
2017-03-04T01:23:40.325Z,6.8
2017-03-04T01:23:50.321Z,6.8
2017-03-04T01:24:00.312Z,6.8
2017-03-04T01:24:10.308Z,6.9
2017-03-04T01:24:20.299Z,6.8
2017-03-04T01:24:30.293Z,6.8
2017-03-04T01:24:40.286Z,6.9
2017-03-04T01:24:50.281Z,6.9
2017-03-04T01:25:00.274Z,6.8
2017-03-04T01:25:10.275Z,6.9
2017-03-04T01:25:20.263Z,6.9
2017-03-04T01:25:30.259Z,6.9
2017-03-04T01:25:40.256Z,6.8
2017-03-04T01:25:50.245Z,6.8
2017-03-04T01:26:00.237Z,6.9
2017-03-04T01:26:10.234Z,6.9
2017-03-04T01:26:20.224Z,6.9
2017-03-04T01:26:30.220Z,6.8
2017-03-04T01:26:40.214Z,6.8
2017-03-04T01:26:50.206Z,6.8
2017-03-04T01:27:00.199Z,6.8
2017-03-04T01:27:10.193Z,6.8
2017-03-04T01:27:20.189Z,6.9
2017-03-04T01:27:30.185Z,6.9
2017-03-04T01:27:40.175Z,6.8
2017-03-04T01:27:50.171Z,6.8
2017-03-04T01:28:00.165Z,6.8
2017-03-04T01:28:10.160Z,6.9
2017-03-04T01:28:20.153Z,6.8
2017-03-04T01:28:30.146Z,6.8
2017-03-04T01:28:40.140Z,6.8
2017-03-04T01:28:50.132Z,6.7
2017-03-04T01:29:00.127Z,6.8
2017-03-04T01:29:10.118Z,6.8
2017-03-04T01:29:20.116Z,6.8
2017-03-04T01:29:30.106Z,6.7
2017-03-04T01:29:40.100Z,6.7
2017-03-04T01:29:50.094Z,6.7
2017-03-04T01:30:00.090Z,6.7
2017-03-04T01:30:10.083Z,6.7
2017-03-04T01:30:20.075Z,6.7
2017-03-04T01:30:30.071Z,6.7
2017-03-04T01:30:40.064Z,6.7
2017-03-04T01:30:50.057Z,6.7
2017-03-04T01:31:00.050Z,6.7
2017-03-04T01:31:10.044Z,6.8
2017-03-04T01:31:20.038Z,6.8
2017-03-04T01:31:30.034Z,6.7
2017-03-04T01:31:40.024Z,6.6
2017-03-04T01:31:50.020Z,6.7
2017-03-04T01:32:00.014Z,6.7
2017-03-04T01:32:10.006Z,6.7
2017-03-04T01:32:20.000Z,6.7
2017-03-04T01:32:29.993Z,6.7
2017-03-04T01:32:39.990Z,6.7
2017-03-04T01:32:49.982Z,6.7
2017-03-04T01:32:59.979Z,6.7
2017-03-04T01:33:09.972Z,6.7
2017-03-04T01:33:19.965Z,6.7
2017-03-04T01:33:29.957Z,6.7
2017-03-04T01:33:39.954Z,6.6
2017-03-04T01:33:49.947Z,6.7
2017-03-04T01:33:59.938Z,6.7
2017-03-04T01:34:09.935Z,6.6
2017-03-04T01:34:19.924Z,6.6
2017-03-04T01:34:29.921Z,6.6
2017-03-04T01:34:39.915Z,6.6
2017-03-04T01:34:49.907Z,6.6
2017-03-04T01:34:59.902Z,6.6
2017-03-04T01:35:09.894Z,6.6
2017-03-04T01:35:19.891Z,6.6
2017-03-04T01:35:29.881Z,6.6
2017-03-04T01:35:39.878Z,6.5
2017-03-04T01:35:49.872Z,6.5
2017-03-04T01:35:59.865Z,6.5
2017-03-04T01:36:09.857Z,6.5
2017-03-04T01:36:19.853Z,6.6
2017-03-04T01:36:29.844Z,6.5
2017-03-04T01:36:39.837Z,6.6
2017-03-04T01:36:49.831Z,6.6
2017-03-04T01:36:59.827Z,6.5
2017-03-04T01:37:09.820Z,6.6
2017-03-04T01:37:19.815Z,6.5
2017-03-04T01:37:29.806Z,6.5
2017-03-04T01:37:39.800Z,6.5
2017-03-04T01:37:49.795Z,6.5
2017-03-04T01:37:59.791Z,6.5
2017-03-04T01:38:09.784Z,6.5
2017-03-04T01:38:19.775Z,6.5
2017-03-04T01:38:29.771Z,6.5
2017-03-04T01:38:39.767Z,6.5
2017-03-04T01:38:49.760Z,6.5
2017-03-04T01:38:59.751Z,6.5
2017-03-04T01:39:09.743Z,6.5
2017-03-04T01:39:19.739Z,6.6
2017-03-04T01:39:29.734Z,6.5
2017-03-04T01:39:39.728Z,6.5
2017-03-04T01:39:49.720Z,6.5
2017-03-04T01:39:59.716Z,6.6
2017-03-04T01:40:09.707Z,6.5
2017-03-04T01:40:19.704Z,6.5
2017-03-04T01:40:29.694Z,6.5
2017-03-04T01:40:39.687Z,6.4
2017-03-04T01:40:49.683Z,6.4
2017-03-04T01:40:59.675Z,6.5
2017-03-04T01:41:09.671Z,6.4
2017-03-04T01:41:19.663Z,6.5
2017-03-04T01:41:29.657Z,6.5
2017-03-04T01:41:39.650Z,6.5
2017-03-04T01:41:49.646Z,6.5
2017-03-04T01:41:59.640Z,6.5
2017-03-04T01:42:09.634Z,6.4
2017-03-04T01:42:19.628Z,6.4
2017-03-04T01:42:29.622Z,6.4
2017-03-04T01:42:39.612Z,6.5
2017-03-04T01:42:49.610Z,6.5
2017-03-04T01:42:59.602Z,6.4
2017-03-04T01:43:09.593Z,6.4
2017-03-04T01:43:19.589Z,6.4
2017-03-04T01:43:29.584Z,6.4
2017-03-04T01:43:39.577Z,6.4
2017-03-04T01:43:49.571Z,6.5
2017-03-04T01:43:59.561Z,6.5
2017-03-04T01:44:09.557Z,6.4
2017-03-04T01:44:19.552Z,6.4
2017-03-04T01:44:29.544Z,6.4
2017-03-04T01:44:39.541Z,6.4
2017-03-04T01:44:49.534Z,6.4
2017-03-04T01:44:59.528Z,6.4
2017-03-04T01:45:09.522Z,6.4
2017-03-04T01:45:19.513Z,6.6
2017-03-04T01:45:29.505Z,6.4
2017-03-04T01:45:39.503Z,6.5
2017-03-04T01:45:49.497Z,6.5
2017-03-04T01:45:59.490Z,6.6
2017-03-04T01:46:09.485Z,6.5
2017-03-04T01:46:19.479Z,6.5
2017-03-04T01:46:29.470Z,6.5
2017-03-04T01:46:39.464Z,6.5
2017-03-04T01:46:49.459Z,6.4
2017-03-04T01:46:59.451Z,6.5
2017-03-04T01:47:09.444Z,6.5
2017-03-04T01:47:19.438Z,6.4
2017-03-04T01:47:29.434Z,6.5
2017-03-04T01:47:39.428Z,6.5
2017-03-04T01:47:49.420Z,6.5
2017-03-04T01:47:59.413Z,6.4
2017-03-04T01:48:09.406Z,6.4
2017-03-04T01:48:19.401Z,6.4
2017-03-04T01:48:29.395Z,6.5
2017-03-04T01:48:39.389Z,6.4
2017-03-04T01:48:49.385Z,6.4
2017-03-04T01:48:59.376Z,6.4
2017-03-04T01:49:09.370Z,6.4
2017-03-04T01:49:19.365Z,6.5
2017-03-04T01:49:29.383Z,6.4
2017-03-04T01:49:39.353Z,6.4
2017-03-04T01:49:49.346Z,6.4
2017-03-04T01:49:59.341Z,6.4
2017-03-04T01:50:09.334Z,6.4
2017-03-04T01:50:19.328Z,6.3
2017-03-04T01:50:29.320Z,6.4
2017-03-04T01:50:39.313Z,6.4
2017-03-04T01:50:49.309Z,6.5
2017-03-04T01:50:59.304Z,6.4
2017-03-04T01:51:09.297Z,6.4
2017-03-04T01:51:19.292Z,6.4
2017-03-04T01:51:29.282Z,6.4
2017-03-04T01:51:39.275Z,6.4
2017-03-04T01:51:49.272Z,6.4
2017-03-04T01:51:59.263Z,6.4
2017-03-04T01:52:09.259Z,6.3
2017-03-04T01:52:19.251Z,6.4
2017-03-04T01:52:29.246Z,6.4
2017-03-04T01:52:39.238Z,6.4
2017-03-04T01:52:49.232Z,6.3
2017-03-04T01:52:59.228Z,6.4
2017-03-04T01:53:09.218Z,6.5
2017-03-04T01:53:19.213Z,6.4
2017-03-04T01:53:29.207Z,6.4
2017-03-04T01:53:39.201Z,6.3
2017-03-04T01:53:49.195Z,6.3
2017-03-04T01:53:59.187Z,6.4
2017-03-04T01:54:09.184Z,6.4
2017-03-04T01:54:19.179Z,6.4
2017-03-04T01:54:29.169Z,6.4
2017-03-04T01:54:39.163Z,6.3
2017-03-04T01:54:49.156Z,6.3
2017-03-04T01:54:59.153Z,6.4
2017-03-04T01:55:09.147Z,6.4
2017-03-04T01:55:19.141Z,6.4
2017-03-04T01:55:29.134Z,6.4
2017-03-04T01:55:39.124Z,6.4
2017-03-04T01:55:49.121Z,6.3
2017-03-04T01:55:59.112Z,6.3
2017-03-04T01:56:09.106Z,6.4
2017-03-04T01:56:19.101Z,6.4
2017-03-04T01:56:29.094Z,6.3
2017-03-04T01:56:39.090Z,6.3
2017-03-04T01:56:49.085Z,6.4
2017-03-04T01:56:59.077Z,6.4
2017-03-04T01:57:09.069Z,6.3
2017-03-04T01:57:19.066Z,6.3
2017-03-04T01:57:29.056Z,6.4
2017-03-04T01:57:39.053Z,6.3
2017-03-04T01:57:49.044Z,6.3
2017-03-04T01:57:59.036Z,6.4
2017-03-04T01:58:09.031Z,6.4
2017-03-04T01:58:19.039Z,6.3
2017-03-04T01:58:29.019Z,6.3
2017-03-04T01:58:39.014Z,6.4
2017-03-04T01:58:49.009Z,6.3
2017-03-04T01:58:59.003Z,6.4
2017-03-04T01:59:08.993Z,6.3
2017-03-04T01:59:18.996Z,6.3
2017-03-04T01:59:28.984Z,6.3
2017-03-04T01:59:38.975Z,6.3
2017-03-04T01:59:48.967Z,6.3
2017-03-04T01:59:58.962Z,6.2
2017-03-04T02:00:08.955Z,6.2
2017-03-04T02:00:18.953Z,6.3
2017-03-04T02:00:28.945Z,6.2
2017-03-04T02:00:38.940Z,6.2
2017-03-04T02:00:48.931Z,6.2
2017-03-04T02:00:58.925Z,6.2
2017-03-04T02:01:08.919Z,6.2
2017-03-04T02:01:18.914Z,6.2
2017-03-04T02:01:28.908Z,6.1
2017-03-04T02:01:38.903Z,6.2
2017-03-04T02:01:48.892Z,6.2
2017-03-04T02:01:58.890Z,6.2
2017-03-04T02:02:08.883Z,6.2
2017-03-04T02:02:18.875Z,6.2
2017-03-04T02:02:28.868Z,6.2
2017-03-04T02:02:38.864Z,6.3
2017-03-04T02:02:48.858Z,6.2
2017-03-04T02:02:58.852Z,6.2
2017-03-04T02:03:08.843Z,6.3
2017-03-04T02:03:18.836Z,6.2
2017-03-04T02:03:28.831Z,6.3
2017-03-04T02:03:38.825Z,6.3
2017-03-04T02:03:48.819Z,6.3
2017-03-04T02:03:58.813Z,6.3
2017-03-04T02:04:08.804Z,6.3
2017-03-04T02:04:18.801Z,6.3
2017-03-04T02:04:28.793Z,6.3
2017-03-04T02:04:38.789Z,6.3
2017-03-04T02:04:48.784Z,6.2
2017-03-04T02:04:58.775Z,6.3
2017-03-04T02:05:08.770Z,6.3
2017-03-04T02:05:18.763Z,6.3
2017-03-04T02:05:28.757Z,6.3
2017-03-04T02:05:38.752Z,6.2
2017-03-04T02:05:48.743Z,6.3
2017-03-04T02:05:58.739Z,6.3
2017-03-04T02:06:08.731Z,6.2
2017-03-04T02:06:18.726Z,6.3
2017-03-04T02:06:28.719Z,6.2
2017-03-04T02:06:38.713Z,6.3
2017-03-04T02:06:48.708Z,6.3
2017-03-04T02:06:58.701Z,6.3
2017-03-04T02:07:08.695Z,6.3
2017-03-04T02:07:18.686Z,6.3
2017-03-04T02:07:28.681Z,6.2
2017-03-04T02:07:38.676Z,6.3
2017-03-04T02:07:48.667Z,6.3
2017-03-04T02:07:58.661Z,6.3
2017-03-04T02:08:08.657Z,6.3
2017-03-04T02:08:18.649Z,6.3
2017-03-04T02:08:28.645Z,6.3
2017-03-04T02:08:38.636Z,6.3
2017-03-04T02:08:48.631Z,6.3
2017-03-04T02:08:58.626Z,6.2
2017-03-04T02:09:08.620Z,6.2
2017-03-04T02:09:18.613Z,6.3
2017-03-04T02:09:28.607Z,6.2
2017-03-04T02:09:38.602Z,6.2
2017-03-04T02:09:48.595Z,6.2
2017-03-04T02:09:58.587Z,6.2
2017-03-04T02:10:08.582Z,6.2
2017-03-04T02:10:18.573Z,6.2
2017-03-04T02:10:28.568Z,6.3
2017-03-04T02:10:38.563Z,6.2
2017-03-04T02:10:48.558Z,6.2
2017-03-04T02:10:58.551Z,6.3
2017-03-04T02:11:08.543Z,6.2
2017-03-04T02:11:18.537Z,6.2
2017-03-04T02:11:28.528Z,6.2
2017-03-04T02:11:38.525Z,6.2
2017-03-04T02:11:48.518Z,6.2
2017-03-04T02:11:58.513Z,6.3
2017-03-04T02:12:08.505Z,6.3
2017-03-04T02:12:18.747Z,6.3
2017-03-04T02:12:28.492Z,6.3
2017-03-04T02:12:38.485Z,6.2
2017-03-04T02:12:48.479Z,6.2
2017-03-04T02:12:58.472Z,6.3
2017-03-04T02:13:08.468Z,6.3
2017-03-04T02:13:18.463Z,6.3
2017-03-04T02:13:28.456Z,6.2
2017-03-04T02:13:38.451Z,6.3
2017-03-04T02:13:48.441Z,6.3
2017-03-04T02:13:58.438Z,6.3
2017-03-04T02:14:08.431Z,6.3
2017-03-04T02:14:18.425Z,6.3
2017-03-04T02:14:28.417Z,6.2
2017-03-04T02:14:38.412Z,6.3
2017-03-04T02:14:48.403Z,6.4
2017-03-04T02:14:58.400Z,6.3
2017-03-04T02:15:08.394Z,6.3
2017-03-04T02:15:18.387Z,6.3
2017-03-04T02:15:28.379Z,6.3
2017-03-04T02:15:38.372Z,6.3
2017-03-04T02:15:48.369Z,6.3
2017-03-04T02:15:58.359Z,6.4
2017-03-04T02:16:08.353Z,6.3
2017-03-04T02:16:18.347Z,6.3
2017-03-04T02:16:28.339Z,6.3
2017-03-04T02:16:38.334Z,6.2
2017-03-04T02:16:48.331Z,6.3
2017-03-04T02:16:58.325Z,6.3
2017-03-04T02:17:08.315Z,6.3
2017-03-04T02:17:18.561Z,6.3
2017-03-04T02:17:28.305Z,6.2
2017-03-04T02:17:38.299Z,6.2
2017-03-04T02:17:48.292Z,6.2
2017-03-04T02:17:58.283Z,6.3